Latest Coastal Weather Observations for Maningrida Airport

IDD60701

Issued at 6:21 pm CST Friday 18 September 2020 (issued every 10 minutes, with the page automatically refreshed every 10 minutes)

About coastal observations | Map of coastal stations | Coastal observations for NT | Marine services | Other Formats
Station Details ID: 014405 Name: MANINGRIDA AIRPORT Lat: -12.06 Lon: 134.23 Height: 28.1 m
Data from the previous 72 hours. | See also: Recent months at Maningrida Airport
Date/Time
CST
Wind Sea
Height
m
Swell Vis
km
Cloud Weather Temp
°C
Press
hPa
Rain since
9am
mm
Dir  Spd
kts
Gust
kts
Height
m
Period
s
Dir
18/06:00pm ENE 10 15 - - - - 10 - - 28.4 1010.3 0.0
18/05:30pm ENE 11 17 - - - - 10 - - 28.9 1010.0 0.0
18/05:00pm ENE 13 18 - - - - 10 - - 29.7 1009.9 0.0
18/04:30pm ENE 13 19 - - - - 10 - - 29.9 1009.7 0.0
18/04:00pm ENE 12 23 - - - - 10 - - 30.8 1009.9 0.0
18/03:30pm ENE 12 18 - - - - 10 - - 31.2 1010.0 0.0
18/03:00pm ENE 12 21 - - - - 10 - - 31.1 1010.2 0.0
18/02:30pm NE 12 18 - - - - 10 Partly cloudy - 31.7 1010.5 0.0
18/02:00pm ENE 13 18 - - - - 10 - - 32.0 1011.0 0.0
18/01:30pm ENE 11 19 - - - - 10 - - 32.2 1011.5 0.0
18/01:00pm ENE 11 17 - - - - 10 - - 32.4 1011.9 0.0
18/12:30pm ENE 14 21 - - - - 10 - - 32.4 1012.2 0.0
18/12:00pm ENE 12 21 - - - - 10 - - 31.7 1012.7 0.0
18/11:30am ENE 14 19 - - - - 10 - - 31.5 1013.2 0.0
18/11:00am E 12 16 - - - - 10 Partly cloudy - 32.1 1013.6 0.0
18/10:30am E 12 19 - - - - 10 - - 30.7 1013.9 0.0
18/10:00am E 13 19 - - - - 10 - - 30.8 1013.9 0.0
18/09:30am ENE 12 17 - - - - 10 - - 30.1 1013.7 0.0
18/09:00am ESE 11 17 - - - - 10 - - 29.5 1013.6 0.0
18/08:30am ESE 8 11 - - - - 10 - - 28.4 1013.4 0.0
18/08:00am SE 7 9 - - - - 10 - - 27.4 1013.2 0.0
18/07:30am SE 7 8 - - - - 10 - - 25.9 1012.8 0.0
18/07:00am S 4 5 - - - - 10 - - 24.3 1012.5 0.0
18/06:30am SSE 4 5 - - - - 10 - - 24.2 1012.2 0.0
18/06:00am SSE 5 6 - - - - 10 Mostly clear - 24.8 1011.8 0.0
18/05:30am ESE 6 8 - - - - 10 - - 24.9 1011.4 0.0
18/05:00am ESE 5 6 - - - - 10 Partly cloudy - 24.8 1011.3 0.0
18/04:30am SSE 5 6 - - - - 10 Partly cloudy - 25.0 1011.4 0.0
18/04:00am SE 6 8 - - - - 10 - - 25.5 1011.2 0.0
18/03:30am SE 8 9 - - - - 10 Cloudy - 25.9 1011.3 0.0
18/03:00am SE 7 9 - - - - 10 Cloudy - 25.9 1011.2 0.0
18/02:30am SSE 5 7 - - - - 10 Partly cloudy - 25.6 1011.3 0.0
18/02:00am SE 4 6 - - - - 10 - - 25.6 1011.5 0.0
18/01:30am SE 5 7 - - - - 10 - - 25.8 1011.8 0.0
18/01:00am SE 5 7 - - - - 10 Partly cloudy - 26.0 1012.1 0.0
18/12:30am E 3 4 - - - - 10 - - 26.0 1012.4 0.0
18/12:00am E 3 5 - - - - 10 - - 26.1 1012.6 0.0
 
Date/Time
CST
Wind Sea
Height
m
Swell Vis
km
Cloud Weather Temp
°C
Press
hPa
Rain since
9am
mm
Dir  Spd
kts
Gust
kts
Height
m
Period
s
Dir
17/11:30pm ENE 3 4 - - - - 10 - - 26.2 1012.8 0.0
17/11:00pm ENE 4 5 - - - - 10 - - 26.4 1012.8 0.0
17/10:30pm ENE 4 6 - - - - 10 - - 26.4 1012.5 0.0
17/10:00pm ENE 6 8 - - - - 10 - - 26.6 1012.5 0.0
17/09:30pm NE 5 7 - - - - 10 - - 26.7 1012.5 0.0
17/09:00pm ENE 5 7 - - - - 10 - - 26.7 1012.3 0.0
17/08:30pm NE 5 9 - - - - 10 - - 26.9 1012.0 0.0
17/08:00pm NE 6 8 - - - - 10 - - 26.9 1011.8 0.0
17/07:30pm NE 7 11 - - - - 10 - - 27.1 1011.3 0.0
17/07:00pm NE 7 10 - - - - 10 - - 27.2 1010.9 0.0
17/06:30pm NE 7 9 - - - - 10 - - 27.5 1010.6 0.0
17/06:00pm NNE 7 11 - - - - 10 - - 28.2 1010.3 0.0
17/05:30pm NE 8 12 - - - - 10 - - 28.7 1010.1 0.0
17/05:00pm NE 10 14 - - - - 10 - - 29.6 1009.7 0.0
17/04:30pm NE 10 14 - - - - 10 - - 30.5 1009.6 0.0
17/04:00pm NNE 12 16 - - - - 10 - - 30.1 1009.7 0.0
17/03:30pm NNE 12 21 - - - - 10 - - 31.3 1009.9 0.0
17/03:00pm NE 10 15 - - - - 10 - - 31.6 1010.3 0.0
17/02:30pm NE 10 16 - - - - 10 - - 32.5 1010.4 0.0
17/02:00pm NE 11 17 - - - - 10 - - 32.0 1010.9 0.0
17/01:30pm ENE 13 19 - - - - 10 - - 32.3 1011.4 0.0
17/01:00pm NE 12 19 - - - - 10 - - 33.1 1011.8 0.0
17/12:30pm ENE 12 18 - - - - 10 - - 32.4 1012.4 0.0
17/12:00pm E 10 17 - - - - 10 Mostly cloudy - 32.3 1012.9 0.0
17/11:30am E 12 17 - - - - 10 - - 32.5 1013.2 0.0
17/11:00am ENE 11 18 - - - - 10 - - 31.9 1013.5 0.0
17/10:30am ENE 9 15 - - - - 10 - - 31.1 1013.7 0.0
17/10:00am E 9 13 - - - - 10 - - 31.8 1013.7 0.0
17/09:30am ESE 6 9 - - - - 10 - - 30.1 1013.9 0.0
17/09:00am ESE 5 7 - - - - 10 Cloudy - 28.6 1013.9 0.0
17/08:30am SE 5 7 - - - - 10 - - 26.7 1013.6 0.0
17/08:00am ESE 6 8 - - - - 10 - - 25.4 1013.2 0.0
17/07:30am SE 6 8 - - - - 10 - - 24.6 1012.9 0.0
17/07:00am SE 5 6 - - - - 10 - - 23.9 1012.5 0.0
17/06:30am SE 3 4 - - - - 10 - - 23.6 1012.3 0.0
17/06:00am SE 5 6 - - - - 10 Cloudy - 23.9 1011.9 0.0
17/05:30am SE 6 7 - - - - 10 - - 24.2 1011.8 0.0
17/05:00am ESE 6 7 - - - - 10 - - 24.2 1011.6 0.0
17/04:30am ESE 6 8 - - - - 10 - - 24.5 1011.5 0.0
17/04:00am SE 6 7 - - - - 10 - - 24.2 1011.5 0.0
17/03:30am SSE 3 4 - - - - 10 - - 24.3 1011.5 0.0
17/03:00am SSE 2 4 - - - - 10 Mostly cloudy - 24.4 1011.5 0.0
17/02:30am SSE 3 5 - - - - 10 - - 24.6 1011.6 0.0
17/02:00am SSE 3 4 - - - - 10 - - 25.1 1012.0 0.0
17/01:30am SE 5 7 - - - - 10 - - 25.5 1012.3 0.0
17/01:00am SE 5 6 - - - - 10 - - 25.9 1012.6 0.0
17/12:30am E 6 7 - - - - 10 - - 26.1 1012.9 0.0
17/12:00am E 7 10 - - - - 10 Cloudy - 26.3 1013.0 0.0
 
Date/Time
CST
Wind Sea
Height
m
Swell Vis
km
Cloud Weather Temp
°C
Press
hPa
Rain since
9am
mm
Dir  Spd
kts
Gust
kts
Height
m
Period
s
Dir
16/11:30pm E 5 7 - - - - 10 - - 26.3 1013.4 0.0
16/11:00pm E 7 11 - - - - 10 Partly cloudy - 26.4 1013.3 0.0
16/10:30pm E 9 15 - - - - 10 Partly cloudy - 26.5 1013.1 0.0
16/10:00pm E 7 11 - - - - 10 - - 26.3 1013.1 0.0
16/09:30pm ENE 8 14 - - - - 10 - - 26.3 1013.0 0.0
16/09:00pm ENE 9 14 - - - - 10 - - 26.5 1012.8 0.0
16/08:30pm ENE 7 11 - - - - 10 - - 26.4 1012.5 0.0
16/08:00pm ENE 9 13 - - - - 10 - - 26.5 1012.2 0.0
16/07:30pm ENE 8 13 - - - - 10 - - 26.6 1011.8 0.0
16/07:00pm NE 9 15 - - - - 10 - - 26.7 1011.4 0.0
16/06:30pm ENE 9 14 - - - - 10 - - 26.9 1011.2 0.0
16/06:00pm NE 9 14 - - - - 10 - - 27.5 1011.0 0.0
16/05:30pm ENE 9 14 - - - - 10 - - 28.2 1011.0 0.0
16/05:00pm NE 11 17 - - - - 10 - - 28.9 1010.9 0.0
16/04:30pm NE 10 15 - - - - 10 - - 29.4 1010.8 0.0
16/04:00pm NE 10 15 - - - - 10 - - 30.1 1010.8 0.0
16/03:30pm NE 11 15 - - - - 10 - - 29.5 1010.9 0.0
16/03:00pm ENE 11 17 - - - - 10 - - 30.6 1010.9 0.0
16/02:30pm NE 13 18 - - - - 10 - - 30.4 1011.3 0.0
16/02:00pm NE 11 16 - - - - 10 - - 31.0 1011.6 0.0
16/01:30pm ENE 9 14 - - - - 10 - - 30.8 1011.9 0.0
16/01:00pm ENE 10 16 - - - - 10 - - 31.1 1012.3 0.0
16/12:30pm NE 10 16 - - - - 10 - - 31.1 1012.8 0.0
16/12:00pm ENE 10 15 - - - - 10 - - 30.7 1013.4 0.0
16/11:30am ENE 12 17 - - - - 10 - - 30.0 1013.8 0.0
16/11:00am NE 11 16 - - - - 10 - - 30.6 1014.1 0.0
16/10:30am ENE 10 17 - - - - 10 Partly cloudy - 29.8 1014.4 0.0
16/10:00am ESE 9 15 - - - - 10 - - 30.2 1014.3 0.0
16/09:30am E 9 13 - - - - 10 - - 28.9 1014.5 0.0
16/09:00am SE 9 13 - - - - 10 - - 27.7 1014.3 0.0
16/08:30am SE 7 10 - - - - 10 - - 26.5 1014.2 0.0
16/08:00am SE 9 12 - - - - 10 - - 24.7 1013.9 0.0
16/07:30am SE 9 11 - - - - 10 - - 23.7 1013.5 0.0
16/07:00am SSE 6 8 - - - - 10 - - 22.1 1013.2 0.0
16/06:30am SSE 5 7 - - - - 10 - - 21.2 1012.8 0.0
16/06:00am SSE 5 7 - - - - 10 Mostly clear - 21.0 1012.5 0.0
16/05:30am S 4 5 - - - - 10 - - 20.5 1012.4 0.0
16/05:00am S 4 5 - - - - 10 - - 20.3 1012.3 0.0
16/04:30am SSE 4 4 - - - - 10 - - 20.8 1012.0 0.0
16/04:00am SSE 4 5 - - - - 10 - - 21.4 1011.6 0.0
16/03:30am SSE 4 5 - - - - 10 - - 22.4 1011.5 0.0
16/03:00am ESE 5 6 - - - - 10 Mostly clear - 22.8 1011.5 0.0
16/02:30am ESE 5 6 - - - - 10 - - 23.1 1011.6 0.0
16/02:00am SSE 5 7 - - - - 10 - - 23.1 1012.0 0.0
16/01:30am SSE 4 5 - - - - 10 - - 23.3 1012.3 0.0
16/01:00am SE 7 9 - - - - 10 - - 24.3 1012.7 0.0
16/12:30am SE 5 7 - - - - 10 - - 23.6 1013.0 0.0
16/12:00am SE 5 6 - - - - 10 - - 23.9 1013.5 0.0
 
Date/Time
CST
Wind Sea
Height
m
Swell Vis
km
Cloud Weather Temp
°C
Press
hPa
Rain since
9am
mm
Dir  Spd
kts
Gust
kts
Height
m
Period
s
Dir
15/11:30pm SSE 4 5 - - - - 10 - - 24.5 1013.7 0.0
15/11:00pm SE 5 6 - - - - 10 - - 25.3 1013.8 0.0
15/10:30pm ESE 6 9 - - - - 10 - - 25.8 1013.6 0.0
15/10:00pm ESE 6 9 - - - - 10 - - 26.2 1013.6 0.0
15/09:30pm ESE 8 12 - - - - 10 - - 26.3 1013.4 0.0
15/09:00pm E 7 13 - - - - 10 - - 26.3 1013.2 0.0
15/08:30pm E 9 14 - - - - 10 - - 26.6 1013.1 0.0
15/08:00pm ENE 9 13 - - - - 10 - - 26.6 1012.7 0.0
15/07:30pm ENE 8 13 - - - - 10 Partly cloudy - 26.6 1012.2 0.0
15/07:00pm ENE 9 16 - - - - 10 Partly cloudy - 26.7 1011.7 0.0
15/06:30pm ENE 10 14 - - - - 10 - - 26.8 1011.3 0.0

Other formats

Comma delimited format used in spreadsheet applications
http://www.bom.gov.au/fwo/IDD60701/IDD60701.95142.axf

JavaScript Object Notation format (JSON) in row-major order
http://www.bom.gov.au/fwo/IDD60701/IDD60701.95142.json

Data quality

Most of these data are generated automatically and are frequently updated. Quality checks on data are not normally performed. It is possible for incorrect values to appear. Refer to information at About Latest Weather Observations and please check the disclaimer before using these data.